createdAt,value
2018-11-11T00:00:38.288Z,11.89
2018-11-11T00:03:05.785Z,11.88
2018-11-11T00:05:33.274Z,11.84
2018-11-11T00:08:01.008Z,11.84
2018-11-11T00:10:28.464Z,11.86
2018-11-11T00:12:55.890Z,11.91
2018-11-11T00:15:23.434Z,11.94
2018-11-11T00:17:50.938Z,11.98
2018-11-11T00:20:18.411Z,12.00
2018-11-11T00:22:45.829Z,12.00
2018-11-11T00:25:13.589Z,12.03
2018-11-11T00:27:41.024Z,12.02
2018-11-11T00:30:08.528Z,12.05
2018-11-11T00:32:35.966Z,12.03
2018-11-11T00:35:03.374Z,12.08
2018-11-11T00:37:30.810Z,12.11
2018-11-11T00:39:58.259Z,12.11
2018-11-11T00:42:25.700Z,12.15
2018-11-11T00:44:53.175Z,12.15
2018-11-11T00:47:20.620Z,12.15
2018-11-11T00:49:48.052Z,12.11
2018-11-11T00:52:15.469Z,12.09
2018-11-11T00:54:42.932Z,12.04
2018-11-11T00:57:10.403Z,11.99
2018-11-11T00:59:37.820Z,11.98
2018-11-11T01:02:05.371Z,11.97
2018-11-11T01:04:32.901Z,11.94
2018-11-11T01:07:00.539Z,11.92
2018-11-11T01:09:28.002Z,11.91
2018-11-11T01:11:55.495Z,11.91
2018-11-11T01:14:22.905Z,11.92
2018-11-11T01:16:50.339Z,11.97
2018-11-11T01:19:17.798Z,12.08
2018-11-11T01:21:45.234Z,12.09
2018-11-11T01:24:12.700Z,12.12
2018-11-11T01:26:40.107Z,12.11
2018-11-11T01:29:07.518Z,12.10
2018-11-11T01:31:34.962Z,12.03
2018-11-11T01:34:02.597Z,12.03
2018-11-11T01:36:30.049Z,12.06
2018-11-11T01:38:57.483Z,12.03
2018-11-11T01:41:24.905Z,12.06
2018-11-11T01:43:52.313Z,12.12
2018-11-11T01:46:19.746Z,12.14
2018-11-11T01:48:47.164Z,12.16
2018-11-11T01:51:14.566Z,12.18
2018-11-11T01:53:42.402Z,12.20
2018-11-11T01:56:09.885Z,12.22
2018-11-11T01:58:37.411Z,12.22
2018-11-11T02:01:04.853Z,12.16
2018-11-11T02:03:32.285Z,12.18
2018-11-11T02:06:00.474Z,12.15
2018-11-11T02:08:27.997Z,12.15
2018-11-11T02:10:55.441Z,12.16
2018-11-11T02:13:22.854Z,12.16
2018-11-11T02:15:50.307Z,12.15
2018-11-11T02:18:17.886Z,12.15
2018-11-11T02:20:45.306Z,12.18
2018-11-11T02:23:12.801Z,12.26
2018-11-11T02:25:40.264Z,12.28
2018-11-11T02:28:07.721Z,12.28
2018-11-11T02:30:35.143Z,12.31
2018-11-11T02:33:02.599Z,12.36
2018-11-11T02:35:30.036Z,12.39
2018-11-11T02:37:57.464Z,12.40
2018-11-11T02:40:25.814Z,12.39
2018-11-11T02:42:53.218Z,12.36
2018-11-11T02:45:20.669Z,12.38
2018-11-11T02:47:48.091Z,12.28
2018-11-11T02:50:15.502Z,12.28
2018-11-11T02:52:42.956Z,12.33
2018-11-11T02:55:10.387Z,12.27
2018-11-11T02:57:37.819Z,12.26
2018-11-11T03:00:05.220Z,12.25
2018-11-11T03:02:32.678Z,12.19
2018-11-11T03:05:00.120Z,12.21
2018-11-11T03:07:27.575Z,12.29
2018-11-11T03:09:55.633Z,12.37
2018-11-11T03:12:23.185Z,12.44
2018-11-11T03:14:50.848Z,12.46
2018-11-11T03:17:18.301Z,12.47
2018-11-11T03:19:45.709Z,12.45
2018-11-11T03:22:13.151Z,12.48
2018-11-11T03:24:40.562Z,12.50
2018-11-11T03:27:08.173Z,12.45
2018-11-11T03:29:35.606Z,12.38
2018-11-11T03:32:03.241Z,12.29
2018-11-11T03:34:30.668Z,12.24
2018-11-11T03:36:58.073Z,12.19
2018-11-11T03:39:25.539Z,12.03
2018-11-11T03:41:52.950Z,12.02
2018-11-11T03:44:20.359Z,12.01
2018-11-11T03:46:47.787Z,12.00
2018-11-11T03:49:15.206Z,11.89
2018-11-11T03:51:42.697Z,11.98
2018-11-11T03:54:10.175Z,12.07
2018-11-11T03:56:37.625Z,12.11
2018-11-11T03:59:05.023Z,12.13
2018-11-11T04:01:32.424Z,12.08
2018-11-11T04:04:00.735Z,12.08
2018-11-11T04:06:28.138Z,12.16
2018-11-11T04:08:55.567Z,12.22
2018-11-11T04:11:23.269Z,12.20
2018-11-11T04:13:50.689Z,12.19
2018-11-11T04:16:18.182Z,12.16
2018-11-11T04:18:45.628Z,12.12
2018-11-11T04:21:13.205Z,12.18
2018-11-11T04:23:40.790Z,12.20
2018-11-11T04:26:08.196Z,12.18
2018-11-11T04:28:35.653Z,12.28
2018-11-11T04:31:03.088Z,12.28
2018-11-11T04:33:30.505Z,12.29
2018-11-11T04:35:57.936Z,12.38
2018-11-11T04:38:26.010Z,12.44
2018-11-11T04:40:53.434Z,12.47
2018-11-11T04:43:21.465Z,12.49
2018-11-11T04:45:48.907Z,12.54
2018-11-11T04:48:16.862Z,12.62
2018-11-11T04:50:44.551Z,12.67
2018-11-11T04:53:11.997Z,12.71
2018-11-11T04:55:39.439Z,12.69
2018-11-11T04:58:06.872Z,12.69
2018-11-11T05:00:34.357Z,12.68
2018-11-11T05:03:01.762Z,12.66
2018-11-11T05:05:29.345Z,12.70
2018-11-11T05:07:56.813Z,12.65
2018-11-11T05:10:24.279Z,12.56
2018-11-11T05:12:51.684Z,12.60
2018-11-11T05:15:19.086Z,12.66
2018-11-11T05:17:46.554Z,12.70
2018-11-11T05:20:13.985Z,12.75
2018-11-11T05:22:41.413Z,12.77
2018-11-11T05:25:08.888Z,12.77
2018-11-11T05:27:36.323Z,12.73
2018-11-11T05:30:03.772Z,12.78
2018-11-11T05:32:31.232Z,12.76
2018-11-11T05:34:58.667Z,12.79
2018-11-11T05:37:26.090Z,12.80
2018-11-11T05:39:53.507Z,12.75
2018-11-11T05:42:20.922Z,12.72
2018-11-11T05:44:48.339Z,12.73
2018-11-11T05:47:15.758Z,12.72
2018-11-11T05:49:43.188Z,12.77
2018-11-11T05:52:11.461Z,12.77
2018-11-11T05:54:38.893Z,12.83
2018-11-11T05:57:06.351Z,12.83
2018-11-11T05:59:33.801Z,12.86
2018-11-11T06:02:01.190Z,12.83
2018-11-11T06:04:28.621Z,12.86
2018-11-11T06:06:56.039Z,12.88
2018-11-11T06:09:23.447Z,12.88
2018-11-11T06:11:50.887Z,12.89
2018-11-11T06:14:18.380Z,12.87
2018-11-11T06:16:45.814Z,12.83
2018-11-11T06:19:13.233Z,12.74
2018-11-11T06:21:40.645Z,12.74
2018-11-11T06:24:08.060Z,12.69
2018-11-11T06:26:35.534Z,12.64
2018-11-11T06:29:02.950Z,12.58
2018-11-11T06:31:30.387Z,12.62
2018-11-11T06:33:57.851Z,12.65
2018-11-11T06:36:25.203Z,12.67
2018-11-11T06:38:52.614Z,12.67
2018-11-11T06:41:20.059Z,12.70
2018-11-11T06:43:47.485Z,12.66
2018-11-11T06:46:14.950Z,12.56
2018-11-11T06:48:42.420Z,12.57
2018-11-11T06:51:09.898Z,12.67
2018-11-11T06:53:37.407Z,12.77
2018-11-11T06:56:04.825Z,12.82
2018-11-11T06:58:32.246Z,12.88
2018-11-11T07:00:59.689Z,12.89
2018-11-11T07:03:45.090Z,12.85
2018-11-11T07:06:12.706Z,12.84
2018-11-11T07:08:40.395Z,12.88
2018-11-11T07:11:07.829Z,12.90
2018-11-11T07:13:35.281Z,12.95
2018-11-11T07:16:02.694Z,13.01
2018-11-11T07:18:30.131Z,13.00
2018-11-11T07:20:57.691Z,12.97
2018-11-11T07:23:25.123Z,12.97
2018-11-11T07:25:52.502Z,13.04
2018-11-11T07:28:19.953Z,13.07
2018-11-11T07:30:47.379Z,13.11
2018-11-11T07:33:14.829Z,13.09
2018-11-11T07:35:42.226Z,13.07
2018-11-11T07:38:09.726Z,13.08
2018-11-11T07:40:37.122Z,13.09
2018-11-11T07:43:04.636Z,13.08
2018-11-11T07:45:32.827Z,13.09
2018-11-11T07:48:00.307Z,13.08
2018-11-11T07:50:27.726Z,13.05
2018-11-11T07:52:55.175Z,13.07
2018-11-11T07:55:22.681Z,13.09
2018-11-11T07:57:50.067Z,13.09
2018-11-11T08:00:17.511Z,13.12
2018-11-11T08:02:44.934Z,13.19
2018-11-11T08:05:13.214Z,13.20
2018-11-11T08:07:40.648Z,13.23
2018-11-11T08:10:08.062Z,13.21
2018-11-11T08:12:35.527Z,13.28
2018-11-11T08:15:03.003Z,13.31
2018-11-11T08:17:30.393Z,13.37
2018-11-11T08:19:57.799Z,13.42
2018-11-11T08:22:25.210Z,13.51
2018-11-11T08:24:52.671Z,13.57
2018-11-11T08:27:20.142Z,13.85
2018-11-11T08:29:47.588Z,13.99
2018-11-11T08:32:15.754Z,14.10
2018-11-11T08:34:43.670Z,14.17
2018-11-11T08:37:11.081Z,14.05
2018-11-11T08:39:38.482Z,13.90
2018-11-11T08:42:06.021Z,13.77
2018-11-11T08:44:33.452Z,13.75
2018-11-11T08:47:01.552Z,13.76
2018-11-11T08:49:29.003Z,13.77
2018-11-11T08:51:56.401Z,13.87
2018-11-11T08:54:23.963Z,14.01
2018-11-11T08:56:51.480Z,14.20
2018-11-11T08:59:18.979Z,14.54
2018-11-11T09:01:46.423Z,14.84
2018-11-11T09:04:13.834Z,15.27
2018-11-11T09:06:41.270Z,17.87
2018-11-11T09:09:09.077Z,19.50
2018-11-11T09:11:36.549Z,18.71
2018-11-11T09:14:04.146Z,20.03
2018-11-11T09:16:31.576Z,20.60
2018-11-11T09:18:59.008Z,20.96
2018-11-11T09:21:26.505Z,21.42
2018-11-11T09:23:53.946Z,21.81
2018-11-11T09:26:21.293Z,22.31
2018-11-11T09:28:48.747Z,21.55
2018-11-11T09:31:16.230Z,20.07
2018-11-11T09:33:43.656Z,18.96
2018-11-11T09:36:11.106Z,18.54
2018-11-11T09:38:38.565Z,18.19
2018-11-11T09:41:05.981Z,19.38
2018-11-11T09:43:33.443Z,20.52
2018-11-11T09:46:00.947Z,19.99
2018-11-11T09:48:28.439Z,20.52
2018-11-11T09:50:55.855Z,20.61
2018-11-11T09:53:23.302Z,20.32
2018-11-11T09:55:50.747Z,19.20
2018-11-11T09:58:18.197Z,18.98
2018-11-11T10:00:46.226Z,19.68
2018-11-11T10:03:13.727Z,20.65
2018-11-11T10:05:41.753Z,21.05
2018-11-11T10:08:09.162Z,21.64
2018-11-11T10:10:36.579Z,21.66
2018-11-11T10:13:04.027Z,21.15
2018-11-11T10:15:31.449Z,20.82
2018-11-11T10:17:58.889Z,20.55
2018-11-11T10:20:26.468Z,19.84
2018-11-11T10:22:53.760Z,19.99
2018-11-11T10:25:21.255Z,19.70
2018-11-11T10:27:48.732Z,19.05
2018-11-11T10:30:16.122Z,18.35
2018-11-11T10:32:55.340Z,18.14
2018-11-11T10:35:22.903Z,18.27
2018-11-11T10:37:50.387Z,18.39
2018-11-11T10:40:17.816Z,17.95
2018-11-11T10:42:45.426Z,17.56
2018-11-11T10:45:12.883Z,17.57
2018-11-11T10:47:40.385Z,18.76
2018-11-11T10:50:07.863Z,19.54
2018-11-11T10:52:35.312Z,19.18
2018-11-11T10:55:02.917Z,19.04
2018-11-11T10:57:30.386Z,18.80
2018-11-11T10:59:57.855Z,19.80
2018-11-11T11:02:25.283Z,21.07
2018-11-11T11:04:53.591Z,21.23
2018-11-11T11:07:21.224Z,20.52
2018-11-11T11:09:48.712Z,20.04
2018-11-11T11:12:16.157Z,19.12
2018-11-11T11:14:43.756Z,18.69
2018-11-11T11:17:11.280Z,19.60
2018-11-11T11:19:38.863Z,20.42
2018-11-11T11:22:06.419Z,19.16
2018-11-11T11:24:33.955Z,19.71
2018-11-11T11:27:03.005Z,21.86
2018-11-11T11:29:30.443Z,23.21
2018-11-11T11:31:58.075Z,23.69
2018-11-11T11:34:25.522Z,22.83
2018-11-11T11:36:53.020Z,22.32
2018-11-11T11:39:20.490Z,23.59
2018-11-11T11:41:47.441Z,23.83
2018-11-11T11:44:15.002Z,23.60
2018-11-11T11:46:42.511Z,24.19
2018-11-11T11:49:09.975Z,24.99
2018-11-11T11:51:37.443Z,24.30
2018-11-11T11:54:04.873Z,22.64
2018-11-11T11:56:32.540Z,22.10
2018-11-11T11:59:00.012Z,22.01
2018-11-11T12:01:27.451Z,20.96
2018-11-11T12:03:54.923Z,20.24
2018-11-11T12:06:22.360Z,20.27
2018-11-11T12:08:49.921Z,22.40
2018-11-11T12:11:17.580Z,23.52
2018-11-11T12:13:45.021Z,23.45
2018-11-11T12:16:12.504Z,22.43
2018-11-11T12:18:39.899Z,22.25
2018-11-11T12:21:07.360Z,23.40
2018-11-11T12:23:34.914Z,24.57
2018-11-11T12:26:02.804Z,25.59
2018-11-11T12:28:30.337Z,26.17
2018-11-11T12:30:57.857Z,25.44
2018-11-11T12:33:25.366Z,25.84
2018-11-11T12:35:53.039Z,26.96
2018-11-11T12:38:20.464Z,27.96
2018-11-11T12:40:47.990Z,27.79
2018-11-11T12:43:15.573Z,27.25
2018-11-11T12:45:43.003Z,28.74
2018-11-11T12:48:10.437Z,30.09
2018-11-11T12:50:37.868Z,28.75
2018-11-11T12:53:05.343Z,27.22
2018-11-11T12:55:33.012Z,26.23
2018-11-11T12:58:00.565Z,26.63
2018-11-11T13:00:28.092Z,25.71
2018-11-11T13:02:55.528Z,24.09
2018-11-11T13:05:22.954Z,23.27
2018-11-11T13:07:50.418Z,24.39
2018-11-11T13:10:17.854Z,23.76
2018-11-11T13:12:45.265Z,23.47
2018-11-11T13:15:12.680Z,23.00
2018-11-11T13:17:40.117Z,23.01
2018-11-11T13:20:08.519Z,22.65
2018-11-11T13:22:36.107Z,23.26
2018-11-11T13:25:03.630Z,23.66
2018-11-11T13:27:31.059Z,23.47
2018-11-11T13:29:58.519Z,23.87
2018-11-11T13:32:26.772Z,26.16
2018-11-11T13:34:54.324Z,29.40
2018-11-11T13:37:21.831Z,27.05
2018-11-11T13:39:49.823Z,25.23
2018-11-11T13:42:17.301Z,26.44
2018-11-11T13:44:44.889Z,29.52
2018-11-11T13:47:12.315Z,28.24
2018-11-11T13:49:39.796Z,27.67
2018-11-11T13:52:07.255Z,26.29
2018-11-11T13:54:34.685Z,24.47
2018-11-11T13:57:02.152Z,24.34
2018-11-11T13:59:29.605Z,25.15
2018-11-11T14:01:57.061Z,26.00
2018-11-11T14:04:24.513Z,24.68
2018-11-11T14:06:52.703Z,23.55
2018-11-11T14:09:20.193Z,23.51
2018-11-11T14:11:47.684Z,23.99
2018-11-11T14:14:15.127Z,23.55
2018-11-11T14:16:42.564Z,22.10
2018-11-11T14:19:10.393Z,22.09
2018-11-11T14:21:37.537Z,23.05
2018-11-11T14:24:04.951Z,23.90
2018-11-11T14:26:32.054Z,26.25
2018-11-11T14:28:59.405Z,29.93
2018-11-11T14:31:26.848Z,27.34
2018-11-11T14:33:54.307Z,24.46
2018-11-11T14:36:21.718Z,25.01
2018-11-11T14:38:49.227Z,25.05
2018-11-11T14:41:16.839Z,27.50
2018-11-11T14:43:44.312Z,25.11
2018-11-11T14:46:11.886Z,22.94
2018-11-11T14:48:39.262Z,21.57
2018-11-11T14:51:06.753Z,21.09
2018-11-11T14:53:34.147Z,20.63
2018-11-11T14:56:01.761Z,20.30
2018-11-11T14:58:30.279Z,20.29
2018-11-11T15:00:57.639Z,19.91
2018-11-11T15:03:25.104Z,19.50
2018-11-11T15:05:52.550Z,19.48
2018-11-11T15:08:20.074Z,19.44
2018-11-11T15:10:47.634Z,19.53
2018-11-11T15:13:15.245Z,19.32
2018-11-11T15:15:42.591Z,19.07
2018-11-11T15:18:10.127Z,18.76
2018-11-11T15:20:37.806Z,18.43
2018-11-11T15:23:05.200Z,18.24
2018-11-11T15:25:32.735Z,18.01
2018-11-11T15:28:00.041Z,17.89
2018-11-11T15:30:27.575Z,17.77
2018-11-11T15:32:55.159Z,17.58
2018-11-11T15:35:22.720Z,17.35
2018-11-11T15:37:50.160Z,17.18
2018-11-11T15:40:17.592Z,17.18
2018-11-11T15:42:45.004Z,17.22
2018-11-11T15:45:12.450Z,17.19
2018-11-11T15:47:39.884Z,17.13
2018-11-11T15:50:07.328Z,17.10
2018-11-11T15:52:34.808Z,16.99
2018-11-11T15:55:02.211Z,16.73
2018-11-11T15:57:29.805Z,16.44
2018-11-11T15:59:57.283Z,16.24
2018-11-11T16:02:24.734Z,16.06
2018-11-11T16:04:52.220Z,15.91
2018-11-11T16:07:19.720Z,15.70
2018-11-11T16:09:47.183Z,15.57
2018-11-11T16:12:14.789Z,15.50
2018-11-11T16:14:42.344Z,15.44
2018-11-11T16:17:09.903Z,15.38
2018-11-11T16:19:37.472Z,15.35
2018-11-11T16:22:04.930Z,15.35
2018-11-11T16:24:32.351Z,15.39
2018-11-11T16:27:00.716Z,15.38
2018-11-11T16:29:28.215Z,15.38
2018-11-11T16:31:55.743Z,15.41
2018-11-11T16:34:23.442Z,15.43
2018-11-11T16:36:50.898Z,15.43
2018-11-11T16:39:18.506Z,15.44
2018-11-11T16:41:45.966Z,15.45
2018-11-11T16:44:13.790Z,15.41
2018-11-11T16:46:41.251Z,15.31
2018-11-11T16:49:08.681Z,15.16
2018-11-11T16:51:36.119Z,15.10
2018-11-11T16:54:03.623Z,15.08
2018-11-11T16:56:31.152Z,15.05
2018-11-11T16:58:58.625Z,14.96
2018-11-11T17:01:26.185Z,14.85
2018-11-11T17:03:53.945Z,14.75
2018-11-11T17:06:21.393Z,14.71
2018-11-11T17:08:48.862Z,14.67
2018-11-11T17:11:16.284Z,14.74
2018-11-11T17:13:43.745Z,14.83
2018-11-11T17:16:11.366Z,14.89
2018-11-11T17:18:38.809Z,14.84
2018-11-11T17:21:06.411Z,14.74
2018-11-11T17:23:33.755Z,14.75
2018-11-11T17:26:01.358Z,14.76
2018-11-11T17:28:28.916Z,14.80
2018-11-11T17:30:56.327Z,14.78
2018-11-11T17:33:23.801Z,14.68
2018-11-11T17:35:51.223Z,14.61
2018-11-11T17:38:18.798Z,14.56
2018-11-11T17:40:46.370Z,14.54
2018-11-11T17:43:13.795Z,14.52
2018-11-11T17:45:41.330Z,14.50
2018-11-11T17:48:08.752Z,14.47
2018-11-11T17:50:36.202Z,14.29
2018-11-11T17:53:03.688Z,14.21
2018-11-11T17:55:31.173Z,14.11
2018-11-11T17:57:58.566Z,14.15
2018-11-11T18:00:25.976Z,14.15
2018-11-11T18:02:53.512Z,14.16
2018-11-11T18:05:20.984Z,14.17
2018-11-11T18:07:48.496Z,14.06
2018-11-11T18:10:16.066Z,13.97
2018-11-11T18:12:43.564Z,13.92
2018-11-11T18:15:11.668Z,13.95
2018-11-11T18:17:39.113Z,13.97
2018-11-11T18:20:06.669Z,13.95
2018-11-11T18:22:34.163Z,13.86
2018-11-11T18:25:01.675Z,13.84
2018-11-11T18:27:29.455Z,13.81
2018-11-11T18:29:56.777Z,13.81
2018-11-11T18:32:24.888Z,13.80
2018-11-11T18:34:52.291Z,13.78
2018-11-11T18:37:19.748Z,13.78
2018-11-11T18:39:47.244Z,13.80
2018-11-11T18:42:15.223Z,13.84
2018-11-11T18:44:42.672Z,13.83
2018-11-11T18:47:10.287Z,13.84
2018-11-11T18:49:37.755Z,13.82
2018-11-11T18:52:05.215Z,13.80
2018-11-11T18:54:32.772Z,13.86
2018-11-11T18:57:00.226Z,13.85
2018-11-11T18:59:27.697Z,13.83
2018-11-11T19:01:55.183Z,13.82
2018-11-11T19:04:22.631Z,13.84
2018-11-11T19:06:50.162Z,13.81
2018-11-11T19:09:18.423Z,13.74
2018-11-11T19:11:46.042Z,13.68
2018-11-11T19:14:13.446Z,13.68
2018-11-11T19:16:40.870Z,13.71
2018-11-11T19:19:08.485Z,13.69
2018-11-11T19:21:35.941Z,13.64
2018-11-11T19:24:03.406Z,13.59
2018-11-11T19:26:30.828Z,13.55
2018-11-11T19:28:58.282Z,13.45
2018-11-11T19:31:25.883Z,13.43
2018-11-11T19:33:53.435Z,13.45
2018-11-11T19:36:20.926Z,13.46
2018-11-11T19:38:48.368Z,13.47
2018-11-11T19:41:15.858Z,13.50
2018-11-11T19:43:43.348Z,13.44
2018-11-11T19:46:10.822Z,13.37
2018-11-11T19:48:38.302Z,13.37
2018-11-11T19:51:05.711Z,13.22
2018-11-11T19:53:33.308Z,13.20
2018-11-11T19:56:00.814Z,13.16
2018-11-11T19:58:28.273Z,13.15
2018-11-11T20:00:55.729Z,13.12
2018-11-11T20:03:23.181Z,13.07
2018-11-11T20:05:50.796Z,13.03
2018-11-11T20:08:18.200Z,12.96
2018-11-11T20:10:45.624Z,12.89
2018-11-11T20:13:13.151Z,12.87
2018-11-11T20:15:40.578Z,12.85
2018-11-11T20:18:08.291Z,12.90
2018-11-11T20:20:35.751Z,12.92
2018-11-11T20:23:03.217Z,12.93
2018-11-11T20:25:30.754Z,12.90
2018-11-11T20:27:58.335Z,12.93
2018-11-11T20:30:25.834Z,12.90
2018-11-11T20:32:53.476Z,12.91
2018-11-11T20:35:20.955Z,12.87
2018-11-11T20:37:49.062Z,12.82
2018-11-11T20:40:16.453Z,12.79
2018-11-11T20:42:43.901Z,12.73
2018-11-11T20:45:11.732Z,12.73
2018-11-11T20:47:39.184Z,12.78
2018-11-11T20:50:06.832Z,12.78
2018-11-11T20:52:34.250Z,12.74
2018-11-11T20:55:01.653Z,12.65
2018-11-11T20:57:29.244Z,12.64
2018-11-11T20:59:56.686Z,12.62
2018-11-11T21:02:24.130Z,12.62
2018-11-11T21:04:51.583Z,12.61
2018-11-11T21:07:19.103Z,12.62
2018-11-11T21:09:46.685Z,12.64
2018-11-11T21:12:14.453Z,12.63
2018-11-11T21:14:41.909Z,12.62
2018-11-11T21:17:09.386Z,12.59
2018-11-11T21:19:36.849Z,12.57
2018-11-11T21:22:04.338Z,12.56
2018-11-11T21:24:31.784Z,12.57
2018-11-11T21:26:59.254Z,12.52
2018-11-11T21:29:26.724Z,12.48
2018-11-11T21:31:56.750Z,12.47
2018-11-11T21:34:24.190Z,12.49
2018-11-11T21:36:51.684Z,12.54
2018-11-11T21:39:19.117Z,12.51
2018-11-11T21:41:46.537Z,12.42
2018-11-11T21:44:13.969Z,12.43
2018-11-11T21:46:41.416Z,12.46
2018-11-11T21:49:08.882Z,12.52
2018-11-11T21:51:36.294Z,12.58
2018-11-11T21:54:03.756Z,12.62
2018-11-11T21:56:31.191Z,12.60
2018-11-11T21:58:58.703Z,12.49
2018-11-11T22:01:26.161Z,12.31
2018-11-11T22:03:53.617Z,12.07
2018-11-11T22:06:21.835Z,11.99
2018-11-11T22:08:49.299Z,11.88
2018-11-11T22:11:17.600Z,11.89
2018-11-11T22:13:45.010Z,11.99
2018-11-11T22:16:12.452Z,12.03
2018-11-11T22:18:39.902Z,12.08
2018-11-11T22:21:07.542Z,12.13
2018-11-11T22:23:34.990Z,12.19
2018-11-11T22:26:02.464Z,12.19
2018-11-11T22:28:29.897Z,12.21
2018-11-11T22:30:57.312Z,12.20
2018-11-11T22:33:24.771Z,12.15
2018-11-11T22:35:52.185Z,12.16
2018-11-11T22:38:19.664Z,12.12
2018-11-11T22:40:47.121Z,12.05
2018-11-11T22:43:14.548Z,11.95
2018-11-11T22:45:41.943Z,11.89
2018-11-11T22:48:09.428Z,11.78
2018-11-11T22:50:36.835Z,11.75
2018-11-11T22:53:04.256Z,11.81
2018-11-11T22:55:32.715Z,11.86
2018-11-11T22:58:00.191Z,11.95
2018-11-11T23:00:27.614Z,12.05
2018-11-11T23:02:55.034Z,12.13
2018-11-11T23:05:22.469Z,12.16
2018-11-11T23:07:49.923Z,12.14
2018-11-11T23:10:17.364Z,12.17
2018-11-11T23:12:44.785Z,12.18
2018-11-11T23:15:12.221Z,12.17
2018-11-11T23:17:39.664Z,12.17
2018-11-11T23:20:07.210Z,12.20
2018-11-11T23:22:34.677Z,12.18
2018-11-11T23:25:02.102Z,12.00
2018-11-11T23:27:29.676Z,11.96
2018-11-11T23:29:57.134Z,11.89
2018-11-11T23:32:24.711Z,11.77
2018-11-11T23:34:52.338Z,11.75
2018-11-11T23:37:19.752Z,11.79
2018-11-11T23:39:47.196Z,11.87
2018-11-11T23:42:14.602Z,11.73
2018-11-11T23:44:42.015Z,11.58
2018-11-11T23:47:09.442Z,11.64
2018-11-11T23:49:36.880Z,11.71
2018-11-11T23:52:04.291Z,11.75
2018-11-11T23:54:31.732Z,11.77
2018-11-11T23:56:59.176Z,11.80
2018-11-11T23:59:27.223Z,11.84
